Monterey, CA

10:57 PM PDT on September 30, 2014 (GMT -0700)
Monterey Peninsula | Change Station
CLOSE
Current Station
Airport
Location: Monterey,
Elevation: 253 ft
Nearby Weather Stations

Elev 253 ft 36.59 °N, 121.84 °W | Updated 1 hour ago

Clear
Clear
61 °F
Feels Like 61 °F
N
0
Wind Variable Wind from North

Today
High -- | Low -- °F
--% Chance of Precip.
Yesterday
High -- | Low -- °F
Precip. -- in
7:01 AM 6:52 PM
Waxing Crescent, 44% visible
Pressure 29.89 in
Visibility 10.0 miles
Clouds Clear
Dew Point 53 °F
Humidity 75%
Rainfall 0.00 in
Snow Depth 0 in , 0 in , 1 in
UV 0 out of 12
Pollen 2.80 out of 12
Air Quality Not available.
Flu Activity Not available.
METAR KMRY 010454Z AUTO 00000KT 10SM CLR 16/12 A2986 RMK AO2 SLP122 T01610117

More Conditions Fewer Conditions

Pressure 29.89 in
Visibility 10.0 miles
Clouds Clear
Dew Point 53 °F
Humidity 75%
Rainfall 0.00 in
Snow Depth 0 in , 0 in , 1 in
UV 0 out of 12
Pollen 2.80 out of 12
Air Quality Not available.
Flu Activity Not available.
METAR KMRY 010454Z AUTO 00000KT 10SM CLR 16/12 A2986 RMK AO2 SLP122 T01610117

More Conditions Fewer Conditions

10-Day Weather Forecast

Almanac

Astronomy

Sep. 30, 2014 Rise Set
Actual Time 7:01 AM PDT 6:52 PM PDT
Civil Twilight 6:36 AM PDT 7:17 PM PDT
Nautical Twilight 6:06 AM PDT 7:47 PM PDT
Astronomical Twilight 5:35 AM PDT 8:17 PM PDT
Moon 1:07 PM PDT (9/30) 11:34 PM PDT (9/30)
Length of Visible Light 12h 41m
Length of Day
11h 50m
Tomorrow will be 2m 19s shorter.
Waxing Crescent, 44% of the Moon is Illuminated
Oct 1
Waxing Crescent
Oct 1
First Quarter
Oct 8
Full
Oct 15
Last Quarter
Oct 23
New

Yesterday's Extremes

State Highs State Lows

Community

WunderPhotos

Upload Photos

1,757,875 photos uploaded!

Nearby

Snow Depth

Station Depth Elevation
Horse Meadow 0 in 8631 ft
Squaw Valley 0 in 8200 ft
Burnside Lake 1 in 8139 ft
CSS Lab 3 in 6900 ft
Sonora Pass 0 in 8800 ft

Earthquake Activity

City Distance Mag. Time & Date
Shandon, California 100 miles 2.9 5:34 PM PDT
2014-09-30
East Foothills, California 60 miles 2.6 3:34 PM PDT
2014-09-30
South Dos Palos, California 56 miles 2.7 3:08 PM PDT
2014-09-30
South Dos Palos, California 56 miles 2.5 9:18 PM PDT
2014-09-29
Minimum magnitude displayed is 2.5.

Coastal Water Temperatures

Place Temperature
Monterey, CA 63.0 °F
Redwood City, CA 71.1 °F

Nearby Weather Stations